sensor_id;sensor_type;location;lat;lon;timestamp;pressure;altitude;pressure_sealevel;temperature;humidity
30343;BME280;17145;49.902;8.680;'2024-03-02 00:59:03';98900;;;5;52
30343;BME280;17145;49.902;8.680;'2024-03-02 01:01:30';98890;;;5;52
30343;BME280;17145;49.902;8.680;'2024-03-02 01:03:58';98890;;;5;52
30343;BME280;17145;49.902;8.680;'2024-03-02 01:06:26';98890;;;5;52
30343;BME280;17145;49.902;8.680;'2024-03-02 01:08:58';98890;;;5;52
30343;BME280;17145;49.902;8.680;'2024-03-02 01:11:25';98880;;;5;52
30343;BME280;17145;49.902;8.680;'2024-03-02 01:13:53';98880;;;5;52
30343;BME280;17145;49.902;8.680;'2024-03-02 01:16:21';98880;;;5;52
30343;BME280;17145;49.902;8.680;'2024-03-02 01:18:49';98880;;;5;52
30343;BME280;17145;49.902;8.680;'2024-03-02 01:21:16';98880;;;5;52
30343;BME280;17145;49.902;8.680;'2024-03-02 01:23:44';98880;;;5;52
30343;BME280;17145;49.902;8.680;'2024-03-02 01:26:12';98870;;;5;52
30343;BME280;17145;49.902;8.680;'2024-03-02 01:28:40';98870;;;5;52
30343;BME280;17145;49.902;8.680;'2024-03-02 01:31:09';98870;;;5;52
30343;BME280;17145;49.902;8.680;'2024-03-02 01:33:40';98870;;;5;52
30343;BME280;17145;49.902;8.680;'2024-03-02 01:36:08';98870;;;5;52
30343;BME280;17145;49.902;8.680;'2024-03-02 01:38:44';98870;;;5;52
30343;BME280;17145;49.902;8.680;'2024-03-02 01:41:19';98870;;;5;52
30343;BME280;17145;49.902;8.680;'2024-03-02 01:43:52';98870;;;5;52
30343;BME280;17145;49.902;8.680;'2024-03-02 01:46:21';98870;;;5;52
30343;BME280;17145;49.902;8.680;'2024-03-02 01:48:54';98870;;;5;52
30343;BME280;17145;49.902;8.680;'2024-03-02 01:51:24';98870;;;4;52
30343;BME280;17145;49.902;8.680;'2024-03-02 01:53:52';98870;;;5;52
30343;BME280;17145;49.902;8.680;'2024-03-02 01:56:20';98870;;;4;52
30343;BME280;17145;49.902;8.680;'2024-03-02 01:58:47';98880;;;4;52
30343;BME280;17145;49.902;8.680;'2024-03-02 02:01:15';98880;;;5;52
30343;BME280;17145;49.902;8.680;'2024-03-02 02:03:43';98880;;;4;52
30343;BME280;17145;49.902;8.680;'2024-03-02 02:06:11';98880;;;5;52
30343;BME280;17145;49.902;8.680;'2024-03-02 02:08:38';98880;;;5;52
30343;BME280;17145;49.902;8.680;'2024-03-02 02:11:06';98880;;;5;52
30343;BME280;17145;49.902;8.680;'2024-03-02 02:13:33';98880;;;5;52
30343;BME280;17145;49.902;8.680;'2024-03-02 02:16:01';98880;;;4;52
30343;BME280;17145;49.902;8.680;'2024-03-02 02:18:28';98880;;;5;52
30343;BME280;17145;49.902;8.680;'2024-03-02 02:20:56';98880;;;5;52
30343;BME280;17145;49.902;8.680;'2024-03-02 02:23:25';98880;;;5;52
30343;BME280;17145;49.902;8.680;'2024-03-02 02:25:53';98890;;;4;52
30343;BME280;17145;49.902;8.680;'2024-03-02 02:28:21';98880;;;4;52
30343;BME280;17145;49.902;8.680;'2024-03-02 02:30:48';98880;;;5;52
30343;BME280;17145;49.902;8.680;'2024-03-02 02:33:16';98890;;;5;52
30343;BME280;17145;49.902;8.680;'2024-03-02 02:35:44';98890;;;5;52
30343;BME280;17145;49.902;8.680;'2024-03-02 02:38:11';98890;;;4;53
30343;BME280;17145;49.902;8.680;'2024-03-02 02:40:39';98890;;;4;52
30343;BME280;17145;49.902;8.680;'2024-03-02 02:43:07';98890;;;4;52
30343;BME280;17145;49.902;8.680;'2024-03-02 02:45:35';98880;;;4;52
30343;BME280;17145;49.902;8.680;'2024-03-02 02:48:06';98880;;;4;52
30343;BME280;17145;49.902;8.680;'2024-03-02 02:50:34';98870;;;4;52
30343;BME280;17145;49.902;8.680;'2024-03-02 02:53:01';98870;;;4;52
30343;BME280;17145;49.902;8.680;'2024-03-02 02:55:29';98870;;;4;52
30343;BME280;17145;49.902;8.680;'2024-03-02 02:57:57';98860;;;4;52
30343;BME280;17145;49.902;8.680;'2024-03-02 03:00:24';98860;;;4;53
30343;BME280;17145;49.902;8.680;'2024-03-02 03:02:53';98850;;;4;52
30343;BME280;17145;49.902;8.680;'2024-03-02 03:05:20';98840;;;4;53
30343;BME280;17145;49.902;8.680;'2024-03-02 03:07:48';98840;;;4;53
30343;BME280;17145;49.902;8.680;'2024-03-02 03:10:15';98840;;;4;52
30343;BME280;17145;49.902;8.680;'2024-03-02 03:12:43';98830;;;4;52
30343;BME280;17145;49.902;8.680;'2024-03-02 03:15:22';98830;;;4;52
30343;BME280;17145;49.902;8.680;'2024-03-02 03:17:49';98830;;;4;52
30343;BME280;17145;49.902;8.680;'2024-03-02 03:20:17';98830;;;4;52
30343;BME280;17145;49.902;8.680;'2024-03-02 03:22:54';98830;;;4;52
30343;BME280;17145;49.902;8.680;'2024-03-02 03:25:22';98830;;;4;51
30343;BME280;17145;49.902;8.680;'2024-03-02 03:27:49';98830;;;4;52
30343;BME280;17145;49.902;8.680;'2024-03-02 03:30:19';98830;;;4;52
30343;BME280;17145;49.902;8.680;'2024-03-02 03:32:47';98830;;;4;52
30343;BME280;17145;49.902;8.680;'2024-03-02 03:35:14';98830;;;4;52
30343;BME280;17145;49.902;8.680;'2024-03-02 03:37:42';98830;;;4;52
30343;BME280;17145;49.902;8.680;'2024-03-02 03:40:10';98830;;;4;53
30343;BME280;17145;49.902;8.680;'2024-03-02 03:42:37';98830;;;4;53
30343;BME280;17145;49.902;8.680;'2024-03-02 03:45:06';98820;;;4;52
30343;BME280;17145;49.902;8.680;'2024-03-02 03:47:33';98820;;;4;52
30343;BME280;17145;49.902;8.680;'2024-03-02 03:50:01';98820;;;4;52
30343;BME280;17145;49.902;8.680;'2024-03-02 03:52:31';98810;;;4;52
30343;BME280;17145;49.902;8.680;'2024-03-02 03:54:59';98810;;;4;52
30343;BME280;17145;49.902;8.680;'2024-03-02 03:57:26';98820;;;4;52
30343;BME280;17145;49.902;8.680;'2024-03-02 03:59:54';98810;;;4;52
30343;BME280;17145;49.902;8.680;'2024-03-02 04:02:21';98810;;;4;52
30343;BME280;17145;49.902;8.680;'2024-03-02 04:04:49';98810;;;4;52
30343;BME280;17145;49.902;8.680;'2024-03-02 04:07:16';98800;;;4;52
30343;BME280;17145;49.902;8.680;'2024-03-02 04:09:43';98800;;;4;53
30343;BME280;17145;49.902;8.680;'2024-03-02 04:12:11';98800;;;4;53
30343;BME280;17145;49.902;8.680;'2024-03-02 04:14:40';98800;;;4;53
30343;BME280;17145;49.902;8.680;'2024-03-02 04:17:07';98800;;;4;53
30343;BME280;17145;49.902;8.680;'2024-03-02 04:19:35';98800;;;4;53
30343;BME280;17145;49.902;8.680;'2024-03-02 04:22:02';98800;;;4;53
30343;BME280;17145;49.902;8.680;'2024-03-02 04:24:30';98800;;;4;52
30343;BME280;17145;49.902;8.680;'2024-03-02 04:26:57';98800;;;4;52
30343;BME280;17145;49.902;8.680;'2024-03-02 04:29:24';98790;;;4;52
30343;BME280;17145;49.902;8.680;'2024-03-02 04:31:51';98800;;;4;52
30343;BME280;17145;49.902;8.680;'2024-03-02 04:34:19';98790;;;4;53
30343;BME280;17145;49.902;8.680;'2024-03-02 04:36:46';98800;;;4;52
30343;BME280;17145;49.902;8.680;'2024-03-02 04:39:13';98790;;;4;53
30343;BME280;17145;49.902;8.680;'2024-03-02 04:41:42';98790;;;4;52
30343;BME280;17145;49.902;8.680;'2024-03-02 04:44:09';98790;;;4;53
30343;BME280;17145;49.902;8.680;'2024-03-02 04:46:37';98800;;;3;53
30343;BME280;17145;49.902;8.680;'2024-03-02 04:49:04';98800;;;3;52
30343;BME280;17145;49.902;8.680;'2024-03-02 04:51:31';98800;;;3;52
30343;BME280;17145;49.902;8.680;'2024-03-02 04:53:59';98810;;;4;52
30343;BME280;17145;49.902;8.680;'2024-03-02 04:56:26';98800;;;3;52
30343;BME280;17145;49.902;8.680;'2024-03-02 04:58:53';98800;;;3;52
30343;BME280;17145;49.902;8.680;'2024-03-02 05:01:21';98800;;;3;52
30343;BME280;17145;49.902;8.680;'2024-03-02 05:03:48';98800;;;4;52
30343;BME280;17145;49.902;8.680;'2024-03-02 05:06:16';98800;;;3;52
30343;BME280;17145;49.902;8.680;'2024-03-02 05:08:43';98800;;;3;52
30343;BME280;17145;49.902;8.680;'2024-03-02 05:11:10';98810;;;3;52
30343;BME280;17145;49.902;8.680;'2024-03-02 05:13:38';98810;;;3;52
30343;BME280;17145;49.902;8.680;'2024-03-02 05:16:06';98800;;;3;52
30343;BME280;17145;49.902;8.680;'2024-03-02 05:18:33';98800;;;3;53
30343;BME280;17145;49.902;8.680;'2024-03-02 05:21:00';98800;;;3;52
30343;BME280;17145;49.902;8.680;'2024-03-02 05:23:28';98800;;;3;52
30343;BME280;17145;49.902;8.680;'2024-03-02 05:25:55';98800;;;3;52
30343;BME280;17145;49.902;8.680;'2024-03-02 05:28:23';98800;;;3;52
30343;BME280;17145;49.902;8.680;'2024-03-02 05:30:50';98800;;;3;52
30343;BME280;17145;49.902;8.680;'2024-03-02 05:33:17';98800;;;3;53
30343;BME280;17145;49.902;8.680;'2024-03-02 05:35:45';98810;;;3;53
30343;BME280;17145;49.902;8.680;'2024-03-02 05:38:12';98800;;;3;52
30343;BME280;17145;49.902;8.680;'2024-03-02 05:40:40';98800;;;3;53
30343;BME280;17145;49.902;8.680;'2024-03-02 05:43:07';98810;;;3;53
30343;BME280;17145;49.902;8.680;'2024-03-02 05:45:35';98810;;;3;53
30343;BME280;17145;49.902;8.680;'2024-03-02 05:48:03';98810;;;3;53
30343;BME280;17145;49.902;8.680;'2024-03-02 05:50:30';98820;;;3;53
30343;BME280;17145;49.902;8.680;'2024-03-02 05:52:58';98820;;;3;52
30343;BME280;17145;49.902;8.680;'2024-03-02 05:55:25';98820;;;3;52
30343;BME280;17145;49.902;8.680;'2024-03-02 05:57:52';98820;;;3;52
30343;BME280;17145;49.902;8.680;'2024-03-02 06:00:20';98830;;;3;53
30343;BME280;17145;49.902;8.680;'2024-03-02 06:02:47';98830;;;3;53
30343;BME280;17145;49.902;8.680;'2024-03-02 06:05:14';98830;;;3;53
30343;BME280;17145;49.902;8.680;'2024-03-02 06:07:42';98820;;;3;53
30343;BME280;17145;49.902;8.680;'2024-03-02 06:10:10';98830;;;3;53
30343;BME280;17145;49.902;8.680;'2024-03-02 06:12:37';98830;;;3;53
30343;BME280;17145;49.902;8.680;'2024-03-02 06:15:06';98830;;;3;53
30343;BME280;17145;49.902;8.680;'2024-03-02 06:17:33';98830;;;3;53
30343;BME280;17145;49.902;8.680;'2024-03-02 06:20:01';98840;;;3;53
30343;BME280;17145;49.902;8.680;'2024-03-02 06:22:28';98840;;;3;53
30343;BME280;17145;49.902;8.680;'2024-03-02 06:24:55';98840;;;3;53
30343;BME280;17145;49.902;8.680;'2024-03-02 06:27:22';98840;;;3;53
30343;BME280;17145;49.902;8.680;'2024-03-02 06:29:50';98850;;;3;53
30343;BME280;17145;49.902;8.680;'2024-03-02 06:32:17';98850;;;3;53
30343;BME280;17145;49.902;8.680;'2024-03-02 06:34:44';98860;;;3;53
30343;BME280;17145;49.902;8.680;'2024-03-02 06:37:12';98860;;;3;53
30343;BME280;17145;49.902;8.680;'2024-03-02 06:39:39';98860;;;3;53
30343;BME280;17145;49.902;8.680;'2024-03-02 06:42:06';98860;;;3;53
30343;BME280;17145;49.902;8.680;'2024-03-02 06:44:34';98860;;;3;53
30343;BME280;17145;49.902;8.680;'2024-03-02 06:47:03';98870;;;3;54
30343;BME280;17145;49.902;8.680;'2024-03-02 06:49:31';98860;;;3;53
30343;BME280;17145;49.902;8.680;'2024-03-02 06:51:58';98860;;;3;53
30343;BME280;17145;49.902;8.680;'2024-03-02 06:54:26';98870;;;3;53
30343;BME280;17145;49.902;8.680;'2024-03-02 06:56:53';98860;;;3;53
30343;BME280;17145;49.902;8.680;'2024-03-02 06:59:21';98870;;;3;53
30343;BME280;17145;49.902;8.680;'2024-03-02 07:01:48';98880;;;3;53
30343;BME280;17145;49.902;8.680;'2024-03-02 07:04:16';98880;;;3;53
30343;BME280;17145;49.902;8.680;'2024-03-02 07:06:43';98880;;;3;53
30343;BME280;17145;49.902;8.680;'2024-03-02 07:09:11';98880;;;3;53
30343;BME280;17145;49.902;8.680;'2024-03-02 07:11:39';98880;;;3;53
30343;BME280;17145;49.902;8.680;'2024-03-02 07:14:08';98880;;;3;53
30343;BME280;17145;49.902;8.680;'2024-03-02 07:16:35';98880;;;3;53
30343;BME280;17145;49.902;8.680;'2024-03-02 07:19:02';98880;;;3;53
30343;BME280;17145;49.902;8.680;'2024-03-02 07:21:30';98890;;;3;53
30343;BME280;17145;49.902;8.680;'2024-03-02 07:23:58';98890;;;3;53
30343;BME280;17145;49.902;8.680;'2024-03-02 07:26:25';98890;;;3;53
30343;BME280;17145;49.902;8.680;'2024-03-02 07:28:52';98900;;;3;54
30343;BME280;17145;49.902;8.680;'2024-03-02 07:31:20';98900;;;3;54
30343;BME280;17145;49.902;8.680;'2024-03-02 07:33:47';98910;;;3;54
30343;BME280;17145;49.902;8.680;'2024-03-02 07:36:15';98920;;;3;54
30343;BME280;17145;49.902;8.680;'2024-03-02 07:38:42';98920;;;3;54
30343;BME280;17145;49.902;8.680;'2024-03-02 07:41:09';98910;;;3;54
30343;BME280;17145;49.902;8.680;'2024-03-02 07:43:37';98900;;;3;55
30343;BME280;17145;49.902;8.680;'2024-03-02 07:46:04';98900;;;3;54
30343;BME280;17145;49.902;8.680;'2024-03-02 07:48:31';98900;;;3;54
30343;BME280;17145;49.902;8.680;'2024-03-02 07:50:59';98900;;;3;54
30343;BME280;17145;49.902;8.680;'2024-03-02 07:53:26';98900;;;3;54
30343;BME280;17145;49.902;8.680;'2024-03-02 07:55:53';98900;;;3;54
30343;BME280;17145;49.902;8.680;'2024-03-02 07:58:21';98900;;;3;54
30343;BME280;17145;49.902;8.680;'2024-03-02 08:00:48';98900;;;3;54
30343;BME280;17145;49.902;8.680;'2024-03-02 08:03:15';98900;;;3;54
30343;BME280;17145;49.902;8.680;'2024-03-02 08:05:43';98910;;;3;54
30343;BME280;17145;49.902;8.680;'2024-03-02 08:08:10';98910;;;3;54
30343;BME280;17145;49.902;8.680;'2024-03-02 08:10:38';98910;;;3;54
30343;BME280;17145;49.902;8.680;'2024-03-02 08:13:05';98910;;;3;54
30343;BME280;17145;49.902;8.680;'2024-03-02 08:15:32';98910;;;3;54
30343;BME280;17145;49.902;8.680;'2024-03-02 08:18:01';98910;;;3;54
30343;BME280;17145;49.902;8.680;'2024-03-02 08:20:29';98910;;;3;54
30343;BME280;17145;49.902;8.680;'2024-03-02 08:22:56';98910;;;4;54
30343;BME280;17145;49.902;8.680;'2024-03-02 08:25:23';98920;;;3;54
30343;BME280;17145;49.902;8.680;'2024-03-02 08:27:51';98920;;;3;54
30343;BME280;17145;49.902;8.680;'2024-03-02 08:30:19';98920;;;4;54
30343;BME280;17145;49.902;8.680;'2024-03-02 08:32:46';98920;;;4;54
30343;BME280;17145;49.902;8.680;'2024-03-02 08:35:14';98920;;;4;54
30343;BME280;17145;49.902;8.680;'2024-03-02 08:37:41';98920;;;3;54
30343;BME280;17145;49.902;8.680;'2024-03-02 08:40:10';98920;;;3;54
30343;BME280;17145;49.902;8.680;'2024-03-02 08:42:38';98920;;;3;54
30343;BME280;17145;49.902;8.680;'2024-03-02 08:45:06';98920;;;3;54
30343;BME280;17145;49.902;8.680;'2024-03-02 08:47:34';98920;;;4;54
30343;BME280;17145;49.902;8.680;'2024-03-02 08:50:01';98930;;;4;55
30343;BME280;17145;49.902;8.680;'2024-03-02 08:52:28';98930;;;4;55
30343;BME280;17145;49.902;8.680;'2024-03-02 08:54:56';98930;;;4;55
30343;BME280;17145;49.902;8.680;'2024-03-02 08:57:23';98940;;;4;55
30343;BME280;17145;49.902;8.680;'2024-03-02 08:59:50';98940;;;4;55
30343;BME280;17145;49.902;8.680;'2024-03-02 09:02:18';98940;;;4;55
30343;BME280;17145;49.902;8.680;'2024-03-02 09:04:46';98940;;;4;56
30343;BME280;17145;49.902;8.680;'2024-03-02 09:07:13';98940;;;5;56
30343;BME280;17145;49.902;8.680;'2024-03-02 09:09:41';98940;;;5;56
30343;BME280;17145;49.902;8.680;'2024-03-02 09:12:08';98940;;;4;56
30343;BME280;17145;49.902;8.680;'2024-03-02 09:14:35';98950;;;5;56
30343;BME280;17145;49.902;8.680;'2024-03-02 09:17:03';98950;;;5;56
30343;BME280;17145;49.902;8.680;'2024-03-02 09:19:30';98950;;;5;56
30343;BME280;17145;49.902;8.680;'2024-03-02 09:21:58';98950;;;5;56
30343;BME280;17145;49.902;8.680;'2024-03-02 09:24:25';98940;;;5;56
30343;BME280;17145;49.902;8.680;'2024-03-02 09:26:53';98940;;;5;55
30343;BME280;17145;49.902;8.680;'2024-03-02 09:29:20';98940;;;5;55
30343;BME280;17145;49.902;8.680;'2024-03-02 09:31:47';98940;;;5;55
30343;BME280;17145;49.902;8.680;'2024-03-02 09:34:15';98940;;;5;55
30343;BME280;17145;49.902;8.680;'2024-03-02 09:36:42';98940;;;6;55
30343;BME280;17145;49.902;8.680;'2024-03-02 09:39:10';98940;;;6;55
30343;BME280;17145;49.902;8.680;'2024-03-02 09:41:39';98950;;;6;55
30343;BME280;17145;49.902;8.680;'2024-03-02 09:44:06';98950;;;6;55
30343;BME280;17145;49.902;8.680;'2024-03-02 09:46:34';98950;;;6;54
30343;BME280;17145;49.902;8.680;'2024-03-02 09:49:01';98950;;;6;54
30343;BME280;17145;49.902;8.680;'2024-03-02 09:51:28';98950;;;6;54
30343;BME280;17145;49.902;8.680;'2024-03-02 09:53:56';98950;;;7;54
30343;BME280;17145;49.902;8.680;'2024-03-02 09:56:24';98940;;;7;54
30343;BME280;17145;49.902;8.680;'2024-03-02 09:58:51';98950;;;7;54
30343;BME280;17145;49.902;8.680;'2024-03-02 10:01:19';98950;;;7;53
30343;BME280;17145;49.902;8.680;'2024-03-02 10:03:47';98950;;;7;51
30343;BME280;17145;49.902;8.680;'2024-03-02 10:06:14';98950;;;7;52
30343;BME280;17145;49.902;8.680;'2024-03-02 10:08:42';98940;;;7;52
30343;BME280;17145;49.902;8.680;'2024-03-02 10:11:10';98940;;;8;51
30343;BME280;17145;49.902;8.680;'2024-03-02 10:13:38';98940;;;8;50
30343;BME280;17145;49.902;8.680;'2024-03-02 10:16:06';98940;;;8;50
30343;BME280;17145;49.902;8.680;'2024-03-02 10:18:33';98930;;;8;50
30343;BME280;17145;49.902;8.680;'2024-03-02 10:21:01';98940;;;8;50
30343;BME280;17145;49.902;8.680;'2024-03-02 10:23:28';98940;;;8;50
30343;BME280;17145;49.902;8.680;'2024-03-02 10:25:55';98940;;;8;50
30343;BME280;17145;49.902;8.680;'2024-03-02 10:28:23';98930;;;8;49
30343;BME280;17145;49.902;8.680;'2024-03-02 10:30:50';98930;;;8;49
30343;BME280;17145;49.902;8.680;'2024-03-02 10:33:18';98930;;;8;49
30343;BME280;17145;49.902;8.680;'2024-03-02 10:35:45';98940;;;9;48
30343;BME280;17145;49.902;8.680;'2024-03-02 10:38:12';98940;;;9;47
30343;BME280;17145;49.902;8.680;'2024-03-02 10:40:42';98940;;;9;47
30343;BME280;17145;49.902;8.680;'2024-03-02 10:43:10';98930;;;9;47
30343;BME280;17145;49.902;8.680;'2024-03-02 10:45:37';98930;;;9;47
30343;BME280;17145;49.902;8.680;'2024-03-02 10:48:06';98930;;;9;46
30343;BME280;17145;49.902;8.680;'2024-03-02 10:50:33';98920;;;9;47
30343;BME280;17145;49.902;8.680;'2024-03-02 10:53:01';98920;;;9;47
30343;BME280;17145;49.902;8.680;'2024-03-02 10:55:29';98920;;;9;46
30343;BME280;17145;49.902;8.680;'2024-03-02 10:57:56';98920;;;9;47
30343;BME280;17145;49.902;8.680;'2024-03-02 11:00:23';98910;;;9;47
30343;BME280;17145;49.902;8.680;'2024-03-02 11:02:51';98910;;;9;46
30343;BME280;17145;49.902;8.680;'2024-03-02 11:05:25';98910;;;9;46
30343;BME280;17145;49.902;8.680;'2024-03-02 11:08:00';98910;;;10;46
30343;BME280;17145;49.902;8.680;'2024-03-02 11:10:36';98900;;;10;46
30343;BME280;17145;49.902;8.680;'2024-03-02 11:13:04';98900;;;9;45
30343;BME280;17145;49.902;8.680;'2024-03-02 11:15:32';98900;;;9;45
30343;BME280;17145;49.902;8.680;'2024-03-02 11:17:59';98900;;;10;45
30343;BME280;17145;49.902;8.680;'2024-03-02 11:20:27';98900;;;10;45
30343;BME280;17145;49.902;8.680;'2024-03-02 11:22:55';98900;;;10;46
30343;BME280;17145;49.902;8.680;'2024-03-02 11:25:30';98890;;;10;45
30343;BME280;17145;49.902;8.680;'2024-03-02 11:27:59';98890;;;10;44
30343;BME280;17145;49.902;8.680;'2024-03-02 11:30:28';98890;;;10;45
30343;BME280;17145;49.902;8.680;'2024-03-02 11:32:55';98890;;;10;44
30343;BME280;17145;49.902;8.680;'2024-03-02 11:35:23';98890;;;10;43
30343;BME280;17145;49.902;8.680;'2024-03-02 11:37:52';98880;;;10;43
30343;BME280;17145;49.902;8.680;'2024-03-02 11:40:21';98880;;;10;43
30343;BME280;17145;49.902;8.680;'2024-03-02 11:42:50';98880;;;10;44
30343;BME280;17145;49.902;8.680;'2024-03-02 11:45:20';98870;;;11;42
30343;BME280;17145;49.902;8.680;'2024-03-02 11:47:47';98860;;;10;43
30343;BME280;17145;49.902;8.680;'2024-03-02 11:50:15';98860;;;11;42
30343;BME280;17145;49.902;8.680;'2024-03-02 11:52:42';98860;;;11;41
30343;BME280;17145;49.902;8.680;'2024-03-02 11:55:10';98860;;;11;42
30343;BME280;17145;49.902;8.680;'2024-03-02 11:57:45';98850;;;11;43
30343;BME280;17145;49.902;8.680;'2024-03-02 12:00:13';98850;;;11;41
30343;BME280;17145;49.902;8.680;'2024-03-02 12:02:46';98840;;;11;40
30343;BME280;17145;49.902;8.680;'2024-03-02 12:05:19';98850;;;11;40
30343;BME280;17145;49.902;8.680;'2024-03-02 12:07:48';98850;;;12;40
30343;BME280;17145;49.902;8.680;'2024-03-02 12:10:16';98850;;;12;39
30343;BME280;17145;49.902;8.680;'2024-03-02 12:12:52';98850;;;12;39
30343;BME280;17145;49.902;8.680;'2024-03-02 12:15:24';98840;;;12;39
30343;BME280;17145;49.902;8.680;'2024-03-02 12:17:52';98840;;;12;39
30343;BME280;17145;49.902;8.680;'2024-03-02 12:20:21';98840;;;12;39
30343;BME280;17145;49.902;8.680;'2024-03-02 12:22:48';98840;;;12;38
30343;BME280;17145;49.902;8.680;'2024-03-02 12:25:25';98830;;;12;37
30343;BME280;17145;49.902;8.680;'2024-03-02 12:30:49';98820;;;13;36
30343;BME280;17145;49.902;8.680;'2024-03-02 12:33:23';98820;;;13;37
30343;BME280;17145;49.902;8.680;'2024-03-02 12:35:50';98820;;;13;36
30343;BME280;17145;49.902;8.680;'2024-03-02 12:38:18';98820;;;13;36
30343;BME280;17145;49.902;8.680;'2024-03-02 12:40:46';98820;;;14;37
30343;BME280;17145;49.902;8.680;'2024-03-02 12:43:14';98810;;;13;36
30343;BME280;17145;49.902;8.680;'2024-03-02 12:45:43';98810;;;14;35
30343;BME280;17145;49.902;8.680;'2024-03-02 12:48:13';98810;;;14;35
30343;BME280;17145;49.902;8.680;'2024-03-02 12:50:46';98810;;;14;35
30343;BME280;17145;49.902;8.680;'2024-03-02 12:53:13';98800;;;14;34
30343;BME280;17145;49.902;8.680;'2024-03-02 12:55:41';98800;;;14;34
30343;BME280;17145;49.902;8.680;'2024-03-02 12:58:08';98790;;;14;34
30343;BME280;17145;49.902;8.680;'2024-03-02 13:00:35';98790;;;14;34
30343;BME280;17145;49.902;8.680;'2024-03-02 13:03:06';98780;;;14;35
30343;BME280;17145;49.902;8.680;'2024-03-02 13:05:35';98770;;;14;34
30343;BME280;17145;49.902;8.680;'2024-03-02 13:08:05';98770;;;14;34
30343;BME280;17145;49.902;8.680;'2024-03-02 13:10:34';98770;;;14;35
30343;BME280;17145;49.902;8.680;'2024-03-02 13:13:03';98770;;;15;34
30343;BME280;17145;49.902;8.680;'2024-03-02 13:15:34';98760;;;15;36
30343;BME280;17145;49.902;8.680;'2024-03-02 13:18:02';98760;;;14;33
30343;BME280;17145;49.902;8.680;'2024-03-02 13:20:31';98750;;;15;33
30343;BME280;17145;49.902;8.680;'2024-03-02 13:23:01';98750;;;15;33
30343;BME280;17145;49.902;8.680;'2024-03-02 13:25:31';98740;;;15;34
30343;BME280;17145;49.902;8.680;'2024-03-02 13:28:00';98740;;;15;34
30343;BME280;17145;49.902;8.680;'2024-03-02 13:30:30';98740;;;15;34
30343;BME280;17145;49.902;8.680;'2024-03-02 13:32:57';98740;;;15;34
30343;BME280;17145;49.902;8.680;'2024-03-02 13:35:25';98740;;;15;33
30343;BME280;17145;49.902;8.680;'2024-03-02 13:37:54';98740;;;15;32
30343;BME280;17145;49.902;8.680;'2024-03-02 13:40:22';98740;;;15;32
30343;BME280;17145;49.902;8.680;'2024-03-02 13:42:50';98730;;;15;33
30343;BME280;17145;49.902;8.680;'2024-03-02 13:45:18';98730;;;16;33
30343;BME280;17145;49.902;8.680;'2024-03-02 13:47:45';98730;;;15;32
30343;BME280;17145;49.902;8.680;'2024-03-02 13:50:13';98720;;;16;32
30343;BME280;17145;49.902;8.680;'2024-03-02 13:52:40';98720;;;16;32
30343;BME280;17145;49.902;8.680;'2024-03-02 13:55:18';98720;;;16;32
30343;BME280;17145;49.902;8.680;'2024-03-02 13:57:45';98710;;;16;32
30343;BME280;17145;49.902;8.680;'2024-03-02 14:00:13';98710;;;16;31
30343;BME280;17145;49.902;8.680;'2024-03-02 14:02:42';98710;;;16;32
30343;BME280;17145;49.902;8.680;'2024-03-02 14:05:09';98700;;;16;31
30343;BME280;17145;49.902;8.680;'2024-03-02 14:07:37';98700;;;16;31
30343;BME280;17145;49.902;8.680;'2024-03-02 14:10:06';98710;;;16;32
30343;BME280;17145;49.902;8.680;'2024-03-02 14:12:35';98700;;;16;30
30343;BME280;17145;49.902;8.680;'2024-03-02 14:15:03';98700;;;16;31
30343;BME280;17145;49.902;8.680;'2024-03-02 14:17:35';98700;;;16;32
30343;BME280;17145;49.902;8.680;'2024-03-02 14:20:03';98700;;;15;33
30343;BME280;17145;49.902;8.680;'2024-03-02 14:22:30';98700;;;15;33
30343;BME280;17145;49.902;8.680;'2024-03-02 14:24:57';98700;;;15;33
30343;BME280;17145;49.902;8.680;'2024-03-02 14:27:26';98700;;;15;32
30343;BME280;17145;49.902;8.680;'2024-03-02 14:29:54';98710;;;15;32
30343;BME280;17145;49.902;8.680;'2024-03-02 14:32:22';98700;;;15;31
30343;BME280;17145;49.902;8.680;'2024-03-02 14:34:49';98700;;;15;31
30343;BME280;17145;49.902;8.680;'2024-03-02 14:37:17';98690;;;15;31
30343;BME280;17145;49.902;8.680;'2024-03-02 14:39:45';98690;;;16;32
30343;BME280;17145;49.902;8.680;'2024-03-02 14:42:13';98680;;;16;32
30343;BME280;17145;49.902;8.680;'2024-03-02 14:44:40';98670;;;16;31
30343;BME280;17145;49.902;8.680;'2024-03-02 14:47:08';98660;;;17;32
30343;BME280;17145;49.902;8.680;'2024-03-02 14:49:35';98670;;;17;32
30343;BME280;17145;49.902;8.680;'2024-03-02 14:52:05';98670;;;17;32
30343;BME280;17145;49.902;8.680;'2024-03-02 14:54:36';98670;;;17;31
30343;BME280;17145;49.902;8.680;'2024-03-02 14:57:04';98670;;;17;30
30343;BME280;17145;49.902;8.680;'2024-03-02 14:59:31';98670;;;17;31
30343;BME280;17145;49.902;8.680;'2024-03-02 15:01:59';98670;;;17;31
30343;BME280;17145;49.902;8.680;'2024-03-02 15:04:28';98660;;;17;31
30343;BME280;17145;49.902;8.680;'2024-03-02 15:06:55';98660;;;16;31
30343;BME280;17145;49.902;8.680;'2024-03-02 15:09:22';98660;;;17;31
30343;BME280;17145;49.902;8.680;'2024-03-02 15:11:50';98650;;;16;31
30343;BME280;17145;49.902;8.680;'2024-03-02 15:14:18';98640;;;16;32
30343;BME280;17145;49.902;8.680;'2024-03-02 15:16:46';98650;;;16;32
30343;BME280;17145;49.902;8.680;'2024-03-02 15:19:13';98650;;;16;32
30343;BME280;17145;49.902;8.680;'2024-03-02 15:21:41';98650;;;16;32
30343;BME280;17145;49.902;8.680;'2024-03-02 15:24:08';98640;;;16;32
30343;BME280;17145;49.902;8.680;'2024-03-02 15:26:36';98640;;;16;32
30343;BME280;17145;49.902;8.680;'2024-03-02 15:29:04';98640;;;16;31
30343;BME280;17145;49.902;8.680;'2024-03-02 15:31:32';98640;;;17;30
30343;BME280;17145;49.902;8.680;'2024-03-02 15:34:00';98640;;;17;32
30343;BME280;17145;49.902;8.680;'2024-03-02 15:36:27';98630;;;17;31